Regional Weather

 

KCRX - Corinth, Mississippi, USA
Distance from station: SW 29mi, 47km
Updated: Mon, 18-Oct-2021 8:35pm CDT
Clear
Clear
 Wind from calm
Wind: Calm
Temperature: 54°F , 12°C
Dew Point: 50°F , 10°C
Humidity: 88%
Barometer: 30.16 inHg , 1021.3 hPa
Clouds: Clear
Visibility: 10 miles , 16 km
2021/10/19 01:35 KCRX 190135Z AUTO 00000KT 10SM CLR 12/10 A3016 RMK AO2
KMKL - Jackson, Tennessee, USA
Distance from station: NW 46mi, 73km
Updated: Mon, 18-Oct-2021 7:53pm CDT
Clear
Clear
 Wind from calm
Wind: Calm
Temperature: 52°F , 11°C
Dew Point: 48°F , 9°C
Humidity: 88%
Barometer: 30.15 inHg , 1021 hPa
Clouds: Clear
Visibility: 10 miles , 16 km
2021/10/19 00:53 KMKL 190053Z AUTO 00000KT 10SM CLR 11/09 A3015 RMK AO2 SLP212 T01060094
 
KMSL - Muscle Shoal, Alabama, USA
Distance from station: SE 49mi, 79km
Updated: Mon, 18-Oct-2021 7:53pm CDT
Clear
Clear
 Wind from calm
Wind: Calm
Temperature: 55°F , 13°C
Dew Point: 48°F , 9°C
Humidity: 77%
Barometer: 30.15 inHg , 1021 hPa
Clouds: Clear
Visibility: 10 miles , 16 km
2021/10/19 00:53 KMSL 190053Z AUTO 00000KT 10SM CLR 13/09 A3015 RMK AO2 SLP210 T01330094
KTUP - Tupelo, Mississippi, USA
Distance from station: SSW 72mi, 117km
Updated: Mon, 18-Oct-2021 7:53pm CDT
Clear
Clear
 Wind from calm
Wind: Calm
Temperature: 57°F , 14°C
Dew Point: 48°F , 9°C
Humidity: 72%
Barometer: 30.15 inHg , 1021 hPa
Clouds: Clear
Visibility: 10 miles , 16 km
2021/10/19 00:53 KTUP 190053Z 00000KT 10SM CLR 14/09 A3015 RMK AO2 SLP208 T01440094 $
 
KHSV - Huntsville, Alabama, USA
Distance from station: ESE 92mi, 148km
Updated: Mon, 18-Oct-2021 7:53pm CDT
Clear
Clear
 Wind from calm
Wind: Calm
Temperature: 55°F , 13°C
Dew Point: 46°F , 8°C
Humidity: 72%
Barometer: 30.16 inHg , 1021.3 hPa
Clouds: Clear
Visibility: 10 miles , 16 km
2021/10/19 00:53 KHSV 190053Z 00000KT 10SM CLR 13/08 A3016 RMK AO2 SLP212 T01280083
KBNA - Nashville, TN, USA
Distance from station: NE 97mi, 157km
Updated: Mon, 18-Oct-2021 7:53pm CDT
Clear
Clear
 Wind from calm
Wind: Calm
Temperature: 61°F , 16°C
Dew Point: 43°F , 6°C
Humidity: 52%
Barometer: 30.17 inHg , 1021.7 hPa
Clouds: Clear
Visibility: 10 miles , 16 km
2021/10/19 00:53 KBNA 190053Z 00000KT 10SM CLR 16/06 A3017 RMK AO2 SLP216 T01610061
 
KMEM - Memphis, Tennessee, USA
Distance from station: W 99mi, 159km
Updated: Mon, 18-Oct-2021 7:54pm CDT
Clear
Clear
 Wind from SSW
Wind: SSW 5 mph , 7 km/h
Temperature: 61°F , 16°C
Dew Point: 46°F , 8°C
Humidity: 59%
Barometer: 30.14 inHg , 1020.7 hPa
Clouds: Clear
Visibility: 10 miles , 16 km
2021/10/19 00:54 KMEM 190054Z 20004KT 10SM CLR 16/08 A3014 RMK AO2 SLP203 T01560078
KCKV - Clarksville, TN, USA
Distance from station: NNE 99mi, 159km
Updated: Mon, 18-Oct-2021 7:52pm CDT
Clear
Clear
 Wind from calm
Wind: Calm
Temperature: 55°F , 13°C
Dew Point: 46°F , 8°C
Humidity: 72%
Barometer: 30.16 inHg , 1021.3 hPa
Clouds: Clear
Visibility: 10 miles , 16 km
2021/10/19 00:52 KCKV 190052Z AUTO 00000KT 10SM CLR 13/08 A3016 RMK AO2 SLP214 T01330078
 
KCHA - Chattanooga, TN, USA
Distance from station: E 165mi, 265km
Updated: Mon, 18-Oct-2021 7:53pm CDT
Few Clouds
Few Clouds
 Wind from calm
Wind: Calm
Temperature: 57°F , 14°C
Dew Point: 52°F , 11°C
Humidity: 82%
Barometer: 30.17 inHg , 1021.7 hPa
Clouds: Few Clouds
Visibility: 10 miles , 16 km
Cloud details: Few Clouds 20000 ft
Few Clouds 25000 ft
2021/10/19 00:53 KCHA 190053Z 00000KT 10SM FEW200 FEW250 14/11 A3017 RMK AO2 SLP216 T01390106 $
KTYS - Knoxville, TN, USA
Distance from station: E 234mi, 377km
Updated: Mon, 18-Oct-2021 8:06pm CDT
Few Clouds
Few Clouds
 Wind from calm
Wind: Calm
Temperature: 57°F , 14°C
Dew Point: 46°F , 8°C
Humidity: 67%
Barometer: 30.17 inHg , 1021.7 hPa
Clouds: Few Clouds
Visibility: 10 miles , 16 km
Cloud details: Few Clouds 100 ft
2021/10/19 01:06 KTYS 190106Z 00000KT 10SM FEW001 14/08 A3017 RMK AO2 T01390083

Refresh Page for latest data.